Time;durP1;ratioP1;P1;durP2;ratioP2;P2;SDS_P1;SDS_P2;PMS_P1;PMS_P2;Temp;Humidity;BMP_temperature;BMP_pressure;BME280_temperature;BME280_humidity;BME280_pressure;Samples;Min_cycle;Max_cycle;Signal;HPM_P1;HPM_P2
2023/04/07 00:02:23;;;;;;;42.13;18.77;;;;;;;;;;5054494;28;20044;-85
2023/04/07 00:04:48;;;;;;;49.13;22.00;;;;;;;;;;5036432;28;20032;-84
2023/04/07 00:07:13;;;;;;;47.90;23.25;;;;;;;;;;5054672;28;20037;-83
2023/04/07 00:09:39;;;;;;;42.63;22.63;;;;;;;;;;5054461;28;20033;-83
2023/04/07 00:12:05;;;;;;;46.38;22.65;;;;;;;;;;5054218;28;20047;-84
2023/04/07 00:14:30;;;;;;;39.85;22.08;;;;;;;;;;5036536;28;20362;-84
2023/04/07 00:16:56;;;;;;;43.40;21.90;;;;;;;;;;5064027;28;20079;-84
2023/04/07 00:19:21;;;;;;;41.08;20.65;;;;;;;;;;5054046;28;20108;-84
2023/04/07 00:21:46;;;;;;;41.05;20.25;;;;;;;;;;5053932;28;20033;-85
2023/04/07 00:24:12;;;;;;;42.28;19.95;;;;;;;;;;5054100;28;20020;-84
2023/04/07 00:26:37;;;;;;;40.80;19.55;;;;;;;;;;5052650;28;20025;-83
2023/04/07 00:29:03;;;;;;;37.45;19.23;;;;;;;;;;5054045;28;20044;-84
2023/04/07 00:31:28;;;;;;;39.05;19.45;;;;;;;;;;5049694;28;20438;-84
2023/04/07 00:33:54;;;;;;;40.17;19.35;;;;;;;;;;5053307;28;20025;-85
2023/04/07 00:36:20;;;;;;;35.00;16.92;;;;;;;;;;5057143;28;20045;-85
2023/04/07 00:38:45;;;;;;;37.72;17.42;;;;;;;;;;5066594;28;20044;-83
2023/04/07 00:41:11;;;;;;;36.58;18.08;;;;;;;;;;5055737;28;20041;-84
2023/04/07 00:43:36;;;;;;;33.95;17.90;;;;;;;;;;5053774;28;20037;-84
2023/04/07 00:46:02;;;;;;;35.92;17.45;;;;;;;;;;5053841;28;20021;-84
2023/04/07 00:48:27;;;;;;;31.13;16.40;;;;;;;;;;5035867;28;20043;-83
2023/04/07 00:50:53;;;;;;;37.90;17.27;;;;;;;;;;5053531;28;20139;-84
2023/04/07 00:53:18;;;;;;;30.98;16.45;;;;;;;;;;5053964;28;20029;-84
2023/04/07 00:55:44;;;;;;;32.10;16.02;;;;;;;;;;5021467;28;20442;-83
2023/04/07 00:58:09;;;;;;;35.17;16.33;;;;;;;;;;5066496;28;20168;-83
2023/04/07 01:00:47;;;;;;;31.90;16.40;;;;;;;;;;5058544;28;20048;-84
2023/04/07 01:03:25;;;;;;;32.40;16.13;;;;;;;;;;5052116;28;20033;-84
2023/04/07 01:05:55;;;;;;;31.13;15.48;;;;;;;;;;5048411;28;20025;-83
2023/04/07 01:08:37;;;;;;;32.72;15.23;;;;;;;;;;5074116;28;20025;-83
2023/04/07 01:11:32;;;;;;;36.25;16.23;;;;;;;;;;5070454;28;20041;-83
2023/04/07 01:13:57;;;;;;;32.33;16.45;;;;;;;;;;5059210;28;20139;-84
2023/04/07 01:16:26;;;;;;;30.13;15.77;;;;;;;;;;5037583;28;20071;-84
2023/04/07 01:18:54;;;;;;;36.10;16.27;;;;;;;;;;5066110;28;20025;-84
2023/04/07 01:21:20;;;;;;;34.60;15.30;;;;;;;;;;5062982;28;20033;-84
2023/04/07 01:24:00;;;;;;;27.13;14.20;;;;;;;;;;5043871;28;20110;-84
2023/04/07 01:26:27;;;;;;;26.17;14.20;;;;;;;;;;5054972;28;20116;-84
2023/04/07 01:29:12;;;;;;;28.15;14.75;;;;;;;;;;5036013;28;20048;-85
2023/04/07 01:31:40;;;;;;;34.03;15.43;;;;;;;;;;5053750;28;20021;-84
2023/04/07 01:34:09;;;;;;;34.78;15.50;;;;;;;;;;5031890;28;20028;-84
2023/04/07 01:36:35;;;;;;;32.45;14.68;;;;;;;;;;5020328;28;20029;-84
2023/04/07 01:39:01;;;;;;;29.08;14.68;;;;;;;;;;5026310;28;20067;-85
2023/04/07 01:41:27;;;;;;;33.30;15.88;;;;;;;;;;5029786;28;20022;-82
2023/04/07 01:43:53;;;;;;;34.97;16.65;;;;;;;;;;5036005;28;20026;-83
2023/04/07 01:46:19;;;;;;;33.40;16.30;;;;;;;;;;5035281;28;20455;-84
2023/04/07 01:48:45;;;;;;;32.38;14.95;;;;;;;;;;5019221;28;20025;-84
2023/04/07 01:51:16;;;;;;;34.13;15.82;;;;;;;;;;5002670;28;20037;-83
2023/04/07 01:53:41;;;;;;;;;;;;;;;;;;5020386;28;20087;-83
2023/04/07 01:56:06;;;;;;;29.77;13.52;;;;;;;;;;5035639;28;19913;-85
2023/04/07 01:58:32;;;;;;;31.70;13.80;;;;;;;;;;5005109;28;20114;-85
2023/04/07 02:00:57;;;;;;;29.80;14.75;;;;;;;;;;5027723;28;20029;-82
2023/04/07 02:03:31;;;;;;;30.95;14.57;;;;;;;;;;5039935;28;20061;-83
2023/04/07 02:05:58;;;;;;;29.65;15.02;;;;;;;;;;5019748;28;20030;-82
2023/04/07 02:08:23;;;;;;;30.77;15.93;;;;;;;;;;5018897;28;20029;-83
2023/04/07 02:10:50;;;;;;;32.80;15.75;;;;;;;;;;5002409;28;20072;-84
2023/04/07 02:13:17;;;;;;;28.95;15.45;;;;;;;;;;5035450;28;20352;-82
2023/04/07 02:15:44;;;;;;;30.08;15.32;;;;;;;;;;5002378;28;20033;-83
2023/04/07 02:18:11;;;;;;;38.90;17.13;;;;;;;;;;5021309;28;20443;-83
2023/04/07 02:20:37;;;;;;;38.83;16.08;;;;;;;;;;5037902;28;20431;-82
2023/04/07 02:23:03;;;;;;;27.70;14.82;;;;;;;;;;5042323;28;20117;-83
2023/04/07 02:25:29;;;;;;;33.60;17.13;;;;;;;;;;5035081;28;20396;-83
2023/04/07 02:27:56;;;;;;;38.38;18.08;;;;;;;;;;5036248;28;20034;-83
2023/04/07 02:30:21;;;;;;;37.22;17.00;;;;;;;;;;5034957;28;20128;-82
2023/04/07 02:32:47;;;;;;;33.03;17.08;;;;;;;;;;5036572;28;20124;-83
2023/04/07 02:35:13;;;;;;;39.22;17.20;;;;;;;;;;5025640;28;20032;-83
2023/04/07 02:37:39;;;;;;;36.00;17.58;;;;;;;;;;5039172;28;20033;-82
2023/04/07 02:40:05;;;;;;;33.97;17.63;;;;;;;;;;5055091;28;20040;-83
2023/04/07 02:42:30;;;;;;;38.33;17.50;;;;;;;;;;5060254;28;20090;-82
2023/04/07 02:44:56;;;;;;;35.13;17.20;;;;;;;;;;5060278;28;20037;-83
2023/04/07 02:47:21;;;;;;;33.03;17.83;;;;;;;;;;5054432;28;20041;-82
2023/04/07 02:49:48;;;;;;;36.17;17.95;;;;;;;;;;5054481;28;20044;-82
2023/04/07 02:52:13;;;;;;;36.78;18.80;;;;;;;;;;5054374;28;20029;-83
2023/04/07 02:54:38;;;;;;;33.60;17.27;;;;;;;;;;5054349;28;20056;-83
2023/04/07 02:57:04;;;;;;;34.72;17.58;;;;;;;;;;5058481;28;20025;-83
2023/04/07 02:59:29;;;;;;;30.90;17.42;;;;;;;;;;5058725;28;20068;-83
2023/04/07 03:01:56;;;;;;;31.52;16.90;;;;;;;;;;5057339;28;20044;-83
2023/04/07 03:04:21;;;;;;;35.20;17.48;;;;;;;;;;5059501;28;20108;-83
2023/04/07 03:06:47;;;;;;;36.20;16.42;;;;;;;;;;5064414;28;20028;-82
2023/04/07 03:09:13;;;;;;;30.52;16.95;;;;;;;;;;5054321;28;20056;-84
2023/04/07 03:11:38;;;;;;;36.60;16.42;;;;;;;;;;5055645;28;20043;-83
2023/04/07 03:14:03;;;;;;;30.88;16.58;;;;;;;;;;5055248;28;20033;-83
2023/04/07 03:16:29;;;;;;;30.13;16.23;;;;;;;;;;5054247;28;20103;-84
2023/04/07 03:18:54;;;;;;;31.98;16.23;;;;;;;;;;5057117;28;20083;-83
2023/04/07 03:21:20;;;;;;;31.95;16.65;;;;;;;;;;5054446;28;20106;-83
2023/04/07 03:23:46;;;;;;;30.48;15.77;;;;;;;;;;5057280;28;20039;-86
2023/04/07 03:26:12;;;;;;;32.30;16.15;;;;;;;;;;5066392;28;20035;-82
2023/04/07 03:28:37;;;;;;;29.25;16.45;;;;;;;;;;5054711;28;20025;-84
2023/04/07 03:31:03;;;;;;;27.02;14.63;;;;;;;;;;5054033;28;20036;-84
2023/04/07 03:33:28;;;;;;;25.63;14.07;;;;;;;;;;5054824;28;20119;-83
2023/04/07 03:35:53;;;;;;;26.02;15.27;;;;;;;;;;5036991;28;20382;-83
2023/04/07 03:38:20;;;;;;;27.35;14.30;;;;;;;;;;5051854;28;20013;-83
2023/04/07 03:40:45;;;;;;;23.40;13.63;;;;;;;;;;5057217;28;20136;-84
2023/04/07 03:43:14;;;;;;;22.08;13.32;;;;;;;;;;5054312;28;20076;-84
2023/04/07 03:45:40;;;;;;;22.85;12.85;;;;;;;;;;5057943;28;20029;-83
2023/04/07 03:48:10;;;;;;;23.35;11.82;;;;;;;;;;5044130;28;20547;-83
2023/04/07 03:50:36;;;;;;;22.83;12.40;;;;;;;;;;5037723;28;20033;-83
2023/04/07 03:53:02;;;;;;;21.52;12.15;;;;;;;;;;5053922;28;20179;-83
2023/04/07 03:55:28;;;;;;;22.67;12.13;;;;;;;;;;5053942;28;20308;-83
2023/04/07 03:57:53;;;;;;;21.15;12.00;;;;;;;;;;5043324;28;20108;-83
2023/04/07 04:00:18;;;;;;;23.00;12.65;;;;;;;;;;5038172;28;20036;-84
2023/04/07 04:02:44;;;;;;;24.38;14.30;;;;;;;;;;5053076;28;20025;-84
2023/04/07 04:05:09;;;;;;;25.88;12.25;;;;;;;;;;5054504;28;20024;-84
2023/04/07 04:07:35;;;;;;;22.98;12.80;;;;;;;;;;5063168;28;20025;-84
2023/04/07 04:10:00;;;;;;;20.55;11.80;;;;;;;;;;5054486;28;20032;-84
2023/04/07 04:12:26;;;;;;;24.27;12.63;;;;;;;;;;5054015;28;20017;-83
2023/04/07 04:14:51;;;;;;;23.98;12.93;;;;;;;;;;5031952;28;20103;-84
2023/04/07 04:17:17;;;;;;;22.67;13.20;;;;;;;;;;5041173;28;20043;-84
2023/04/07 04:19:42;;;;;;;23.05;13.00;;;;;;;;;;5055938;28;20060;-84
2023/04/07 04:22:08;;;;;;;28.58;14.82;;;;;;;;;;5052959;28;20068;-84
2023/04/07 04:24:33;;;;;;;24.80;14.68;;;;;;;;;;5052871;28;20024;-84
2023/04/07 04:26:58;;;;;;;25.98;13.73;;;;;;;;;;5054359;28;20028;-85
2023/04/07 04:29:24;;;;;;;22.50;12.48;;;;;;;;;;5060048;28;20345;-85
2023/04/07 04:31:49;;;;;;;23.38;12.60;;;;;;;;;;5054535;28;20054;-86
2023/04/07 04:34:15;;;;;;;24.20;13.63;;;;;;;;;;5055435;28;20135;-86
2023/04/07 04:36:40;;;;;;;23.63;13.35;;;;;;;;;;5057005;28;20083;-84
2023/04/07 04:39:06;;;;;;;25.08;13.93;;;;;;;;;;5061247;28;20036;-93
2023/04/07 04:41:31;;;;;;;30.63;13.73;;;;;;;;;;5055499;28;20099;-86
2023/04/07 04:43:56;;;;;;;25.52;13.77;;;;;;;;;;5056555;28;20095;-84
2023/04/07 04:46:22;;;;;;;23.92;14.32;;;;;;;;;;5054685;28;20059;-84
2023/04/07 04:48:50;;;;;;;30.52;13.88;;;;;;;;;;5058965;28;20037;-84
2023/04/07 04:51:16;;;;;;;24.75;14.30;;;;;;;;;;5059259;28;20044;-85
2023/04/07 04:53:41;;;;;;;28.27;13.82;;;;;;;;;;5052712;28;20032;-84
2023/04/07 04:56:07;;;;;;;25.25;14.38;;;;;;;;;;5055755;28;20147;-82
2023/04/07 04:58:35;;;;;;;24.30;13.52;;;;;;;;;;5041855;28;20032;-84
2023/04/07 05:01:19;;;;;;;27.48;14.15;;;;;;;;;;5062801;28;20059;-82
2023/04/07 05:03:58;;;;;;;25.83;14.67;;;;;;;;;;5044585;28;20037;-83
2023/04/07 05:06:54;;;;;;;25.52;14.45;;;;;;;;;;4999446;28;20102;-87
2023/04/07 05:09:23;;;;;;;32.17;14.52;;;;;;;;;;5058033;28;20029;-82
2023/04/07 05:11:48;;;;;;;29.60;14.95;;;;;;;;;;5026956;28;20037;-85
2023/04/07 05:17:36;;;;;;;28.48;14.82;;;;;;;;;;5052278;28;20501;-81
2023/04/07 05:20:02;;;;;;;28.67;14.20;;;;;;;;;;5050137;28;20037;-85
2023/04/07 05:22:29;;;;;;;29.63;17.05;;;;;;;;;;5038629;28;20029;-86
2023/04/07 05:24:55;;;;;;;33.20;19.63;;;;;;;;;;5041197;28;20115;-89
2023/04/07 05:27:20;;;;;;;30.60;17.98;;;;;;;;;;5056676;28;20033;-85
2023/04/07 05:29:46;;;;;;;28.67;15.55;;;;;;;;;;5044049;28;20111;-84
2023/04/07 05:32:11;;;;;;;32.78;17.15;;;;;;;;;;5065056;28;20029;-85
2023/04/07 05:43:37;;;;;;;37.67;17.73;;;;;;;;;;5348370;22;20144;-89
2023/04/07 05:46:07;;;;;;;31.02;17.70;;;;;;;;;;5015487;28;20064;-88
2023/04/07 05:48:33;;;;;;;;;;;;;;;;;;5077775;28;20036;-86
2023/04/07 05:51:43;;;;;;;33.42;18.33;;;;;;;;;;5077094;28;19923;-88
2023/04/07 05:54:09;;;;;;;;;;;;;;;;;;5083536;28;20036;-87
2023/04/07 05:56:35;;;;;;;35.28;19.67;;;;;;;;;;5063079;28;19917;-85
2023/04/07 05:59:00;;;;;;;34.95;17.80;;;;;;;;;;5055607;28;20036;-84
2023/04/07 06:01:26;;;;;;;31.05;17.70;;;;;;;;;;5075479;28;20394;-85
2023/04/07 06:03:52;;;;;;;38.70;18.88;;;;;;;;;;5076000;28;20028;-85
2023/04/07 06:06:18;;;;;;;34.60;18.63;;;;;;;;;;5053014;28;20032;-84
2023/04/07 06:08:51;;;;;;;31.30;19.55;;;;;;;;;;5063660;28;20045;-85
2023/04/07 06:11:16;;;;;;;32.15;17.45;;;;;;;;;;5075628;28;20051;-86
2023/04/07 06:13:42;;;;;;;36.47;20.58;;;;;;;;;;5081564;28;20053;-85
2023/04/07 06:16:21;;;;;;;33.55;18.30;;;;;;;;;;5049627;28;20037;-86
2023/04/07 06:18:52;;;;;;;34.50;19.98;;;;;;;;;;5175090;22;20052;-88
2023/04/07 06:21:18;;;;;;;32.00;17.83;;;;;;;;;;5076601;28;20086;-84
2023/04/07 06:23:47;;;;;;;31.55;18.83;;;;;;;;;;5059902;28;20028;-86
2023/04/07 06:26:19;;;;;;;40.33;20.70;;;;;;;;;;5067971;28;20007;-83
2023/04/07 06:28:47;;;;;;;36.10;19.45;;;;;;;;;;5075420;28;20376;-84
2023/04/07 06:31:22;;;;;;;38.72;19.35;;;;;;;;;;5088988;28;20028;-85
2023/04/07 06:33:47;;;;;;;33.60;18.30;;;;;;;;;;5077536;28;20048;-87
2023/04/07 06:36:13;;;;;;;41.08;20.40;;;;;;;;;;5091543;28;20438;-85
2023/04/07 06:38:43;;;;;;;39.08;20.67;;;;;;;;;;5058792;28;20036;-87
2023/04/07 06:41:15;;;;;;;39.45;19.25;;;;;;;;;;5104443;28;20130;-84
2023/04/07 06:43:42;;;;;;;35.30;21.23;;;;;;;;;;5043041;28;20040;-88
2023/04/07 06:46:11;;;;;;;40.85;22.02;;;;;;;;;;5069597;28;20037;-89
2023/04/07 06:48:38;;;;;;;39.30;21.13;;;;;;;;;;5056156;28;20162;-87
2023/04/07 06:51:04;;;;;;;37.75;21.45;;;;;;;;;;5080159;28;20036;-89
2023/04/07 06:53:29;;;;;;;36.85;19.45;;;;;;;;;;5043080;28;20055;-89
2023/04/07 06:56:13;;;;;;;39.17;20.90;;;;;;;;;;5019519;28;20025;-85
2023/04/07 06:58:44;;;;;;;34.50;19.77;;;;;;;;;;5048344;28;20033;-88
2023/04/07 07:01:10;;;;;;;34.97;19.20;;;;;;;;;;5048134;28;20063;-88
2023/04/07 07:03:35;;;;;;;43.47;22.33;;;;;;;;;;5031015;28;20048;-86
2023/04/07 07:06:02;;;;;;;39.53;21.65;;;;;;;;;;5049549;28;20024;-86
2023/04/07 07:08:28;;;;;;;38.65;21.13;;;;;;;;;;5064947;28;20012;-88
2023/04/07 07:10:54;;;;;;;33.78;19.83;;;;;;;;;;5051518;28;20044;-88
2023/04/07 07:13:22;;;;;;;43.42;19.95;;;;;;;;;;5049769;28;20028;-91
2023/04/07 07:15:48;;;;;;;38.15;20.30;;;;;;;;;;5014554;28;20356;-87
2023/04/07 07:18:13;;;;;;;36.88;21.02;;;;;;;;;;5059221;28;20101;-88
2023/04/07 07:20:39;;;;;;;39.28;22.15;;;;;;;;;;5042849;28;20021;-86
2023/04/07 07:23:17;;;;;;;46.70;24.63;;;;;;;;;;5056441;28;20012;-86
2023/04/07 07:25:43;;;;;;;45.72;23.27;;;;;;;;;;5086917;28;20035;-87
2023/04/07 07:28:10;;;;;;;46.97;22.85;;;;;;;;;;5048556;28;20029;-89
2023/04/07 07:30:40;;;;;;;42.10;22.02;;;;;;;;;;5044191;28;20146;-87
2023/04/07 07:33:05;;;;;;;41.47;22.85;;;;;;;;;;5071603;28;20052;-87
2023/04/07 07:35:31;;;;;;;40.03;22.13;;;;;;;;;;5075618;28;20385;-89
2023/04/07 07:37:58;;;;;;;41.95;20.95;;;;;;;;;;5065237;28;20046;-88
2023/04/07 07:40:23;;;;;;;42.72;22.10;;;;;;;;;;5074956;28;20055;-90
2023/04/07 07:42:49;;;;;;;39.90;21.17;;;;;;;;;;5080642;28;20028;-88
2023/04/07 07:45:18;;;;;;;43.92;22.35;;;;;;;;;;5068876;28;20033;-90
2023/04/07 07:47:44;;;;;;;45.03;23.63;;;;;;;;;;5066581;28;20051;-89
2023/04/07 07:50:09;;;;;;;39.63;21.27;;;;;;;;;;5069977;28;20357;-90
2023/04/07 07:52:35;;;;;;;43.10;23.65;;;;;;;;;;5103323;28;20535;-84
2023/04/07 07:55:00;;;;;;;42.13;23.20;;;;;;;;;;5079802;28;20044;-87
2023/04/07 07:57:26;;;;;;;42.97;22.02;;;;;;;;;;5068384;28;20100;-85
2023/04/07 07:59:52;;;;;;;42.05;22.23;;;;;;;;;;5085484;28;20024;-89
2023/04/07 08:02:20;;;;;;;40.05;22.17;;;;;;;;;;5068581;28;20104;-85
2023/04/07 08:04:45;;;;;;;49.72;25.92;;;;;;;;;;5064394;28;20028;-89
2023/04/07 08:07:11;;;;;;;44.67;23.73;;;;;;;;;;5094063;28;20035;-87
2023/04/07 08:09:37;;;;;;;49.85;24.92;;;;;;;;;;5091066;28;20050;-86
2023/04/07 08:12:02;;;;;;;47.08;24.40;;;;;;;;;;5090660;28;20046;-88
2023/04/07 08:14:28;;;;;;;46.00;25.45;;;;;;;;;;5072808;28;20041;-86
2023/04/07 08:16:54;;;;;;;51.22;23.98;;;;;;;;;;5072103;28;20024;-87
2023/04/07 08:19:19;;;;;;;46.17;22.67;;;;;;;;;;5085473;28;20640;-85
2023/04/07 08:21:45;;;;;;;51.15;23.75;;;;;;;;;;5093149;28;20040;-86
2023/04/07 08:24:11;;;;;;;49.08;23.98;;;;;;;;;;5057600;28;20043;-85
2023/04/07 08:26:37;;;;;;;53.65;26.50;;;;;;;;;;5087920;28;20066;-85
2023/04/07 08:29:04;;;;;;;44.72;22.40;;;;;;;;;;5093293;28;20060;-88
2023/04/07 08:31:29;;;;;;;42.97;22.48;;;;;;;;;;5063875;28;20127;-85
2023/04/07 08:33:58;;;;;;;48.80;24.83;;;;;;;;;;5081775;28;20098;-87
2023/04/07 08:36:25;;;;;;;45.05;22.70;;;;;;;;;;5049931;28;20048;-88
2023/04/07 08:39:01;;;;;;;44.35;24.02;;;;;;;;;;5081000;28;20044;-86
2023/04/07 08:41:29;;;;;;;56.80;26.88;;;;;;;;;;5063195;28;20036;-85
2023/04/07 08:43:56;;;;;;;45.45;23.80;;;;;;;;;;5074026;28;20047;-86
2023/04/07 08:47:02;;;;;;;46.55;25.48;;;;;;;;;;5040026;28;20051;-85
2023/04/07 08:49:28;;;;;;;45.88;24.58;;;;;;;;;;5064509;28;20140;-87
2023/04/07 08:51:53;;;;;;;52.75;26.27;;;;;;;;;;5067649;28;20445;-85
2023/04/07 08:54:21;;;;;;;49.35;26.10;;;;;;;;;;5106960;28;20047;-88
2023/04/07 08:56:46;;;;;;;50.78;26.50;;;;;;;;;;5110209;28;20034;-86
2023/04/07 08:59:13;;;;;;;53.42;26.60;;;;;;;;;;5089519;28;20031;-88
2023/04/07 09:01:39;;;;;;;51.00;26.02;;;;;;;;;;5126655;28;20023;-85
2023/04/07 09:04:09;;;;;;;53.15;25.80;;;;;;;;;;5122359;28;20028;-84
2023/04/07 09:06:35;;;;;;;45.63;22.55;;;;;;;;;;5075207;28;20028;-86
2023/04/07 09:09:04;;;;;;;46.60;23.92;;;;;;;;;;5081435;28;20200;-87
2023/04/07 09:11:37;;;;;;;50.15;26.05;;;;;;;;;;5083825;28;20044;-87
2023/04/07 09:14:02;;;;;;;46.20;24.85;;;;;;;;;;5095265;28;20028;-86
2023/04/07 09:16:28;;;;;;;51.67;24.45;;;;;;;;;;5098903;28;20046;-83
2023/04/07 09:18:56;;;;;;;47.60;25.63;;;;;;;;;;5096040;28;20095;-85
2023/04/07 09:21:21;;;;;;;40.63;22.40;;;;;;;;;;5096342;28;20047;-86
2023/04/07 09:23:47;;;;;;;44.33;22.17;;;;;;;;;;5078651;28;20394;-87
2023/04/07 09:26:23;;;;;;;40.42;23.52;;;;;;;;;;5057147;28;20024;-85
2023/04/07 09:29:22;;;;;;;46.40;23.65;;;;;;;;;;5082884;28;20036;-89
2023/04/07 09:31:50;;;;;;;43.60;22.35;;;;;;;;;;5064874;28;20018;-89
2023/04/07 09:34:47;;;;;;;48.40;24.58;;;;;;;;;;5107955;28;20017;-89
2023/04/07 09:37:21;;;;;;;46.47;21.88;;;;;;;;;;5080159;28;20044;-88
2023/04/07 09:39:55;;;;;;;44.90;23.67;;;;;;;;;;5078367;28;20069;-85
2023/04/07 09:42:21;;;;;;;44.55;22.73;;;;;;;;;;5093197;28;20158;-85
2023/04/07 09:44:52;;;;;;;47.30;24.00;;;;;;;;;;5076281;28;20028;-86
2023/04/07 09:47:17;;;;;;;39.25;20.70;;;;;;;;;;5094933;28;20434;-87
2023/04/07 09:49:52;;;;;;;40.70;21.98;;;;;;;;;;5058165;28;20047;-86
2023/04/07 09:52:20;;;;;;;40.22;21.58;;;;;;;;;;5081599;28;20360;-86
2023/04/07 09:54:46;;;;;;;36.88;20.27;;;;;;;;;;5086213;28;20024;-88
2023/04/07 09:57:17;;;;;;;38.33;21.50;;;;;;;;;;5076449;28;20105;-86
2023/04/07 09:59:43;;;;;;;;;;;;;;;;;;5096584;28;20438;-90
2023/04/07 10:02:11;;;;;;;39.10;21.02;;;;;;;;;;5059101;28;19916;-85
2023/04/07 10:04:37;;;;;;;38.40;20.65;;;;;;;;;;5065495;28;20411;-85
2023/04/07 10:07:03;;;;;;;41.60;22.10;;;;;;;;;;5074010;28;20377;-83
2023/04/07 10:09:29;;;;;;;46.83;22.48;;;;;;;;;;5070387;28;20028;-85
2023/04/07 10:11:56;;;;;;;40.90;20.92;;;;;;;;;;5091793;28;20032;-86
2023/04/07 10:14:22;;;;;;;41.50;20.33;;;;;;;;;;5077156;28;20027;-86
2023/04/07 10:16:47;;;;;;;43.33;19.85;;;;;;;;;;5102272;28;20042;-88
2023/04/07 10:19:15;;;;;;;45.45;21.48;;;;;;;;;;5091237;28;20525;-85
2023/04/07 10:21:41;;;;;;;48.05;22.63;;;;;;;;;;5050782;28;20041;-88
2023/04/07 10:24:07;;;;;;;92.82;27.75;;;;;;;;;;5096475;28;20493;-90
2023/04/07 10:26:33;;;;;;;40.65;20.67;;;;;;;;;;5114788;28;20177;-89
2023/04/07 10:29:07;;;;;;;46.80;23.02;;;;;;;;;;5110349;28;20149;-88
2023/04/07 10:31:32;;;;;;;49.63;24.85;;;;;;;;;;5084272;28;20019;-87
2023/04/07 10:33:57;;;;;;;40.50;19.98;;;;;;;;;;5098072;28;20350;-84
2023/04/07 10:36:23;;;;;;;40.58;20.25;;;;;;;;;;5115742;28;20466;-85
2023/04/07 10:39:07;;;;;;;41.60;20.88;;;;;;;;;;5115225;28;20023;-87
2023/04/07 10:41:36;;;;;;;49.10;23.95;;;;;;;;;;5114418;28;20028;-88
2023/04/07 10:44:06;;;;;;;47.78;23.35;;;;;;;;;;5096877;28;20061;-86
2023/04/07 10:46:50;;;;;;;50.50;23.80;;;;;;;;;;5096879;28;20460;-89
2023/04/07 10:49:16;;;;;;;45.47;20.55;;;;;;;;;;5118545;28;20087;-86
2023/04/07 10:51:41;;;;;;;52.60;22.17;;;;;;;;;;5108469;28;20041;-87
2023/04/07 10:54:19;;;;;;;47.22;22.23;;;;;;;;;;5098467;28;20054;-86
2023/04/07 10:57:13;;;;;;;42.75;21.08;;;;;;;;;;5098982;28;20027;-87
2023/04/07 11:00:08;;;;;;;48.58;22.27;;;;;;;;;;5116791;28;20126;-87
2023/04/07 11:02:34;;;;;;;42.00;20.70;;;;;;;;;;5105009;28;20461;-87
2023/04/07 11:05:00;;;;;;;44.67;22.25;;;;;;;;;;5117105;28;20039;-83
2023/04/07 11:07:45;;;;;;;42.58;21.90;;;;;;;;;;5116533;28;20031;-87
2023/04/07 11:10:11;;;;;;;46.72;21.48;;;;;;;;;;5098323;28;20038;-87
2023/04/07 11:12:36;;;;;;;39.88;20.15;;;;;;;;;;5091969;28;20028;-87
2023/04/07 11:15:21;;;;;;;39.53;21.33;;;;;;;;;;5098075;28;20028;-87
2023/04/07 11:18:05;;;;;;;43.45;21.23;;;;;;;;;;5097868;28;20056;-87
2023/04/07 11:21:00;;;;;;;43.45;21.85;;;;;;;;;;5098341;28;20032;-88
2023/04/07 11:23:26;;;;;;;45.83;21.50;;;;;;;;;;5071400;28;20044;-87
2023/04/07 11:25:53;;;;;;;45.28;22.08;;;;;;;;;;5097870;28;20027;-91
2023/04/07 11:28:18;;;;;;;55.38;25.02;;;;;;;;;;5064144;28;20027;-85
2023/04/07 11:30:46;;;;;;;51.70;23.45;;;;;;;;;;5082517;28;20030;-93
2023/04/07 11:33:16;;;;;;;48.35;23.30;;;;;;;;;;5130459;28;20016;-89
2023/04/07 11:36:00;;;;;;;57.15;23.95;;;;;;;;;;5116629;28;20068;-84
2023/04/07 11:38:34;;;;;;;51.70;25.20;;;;;;;;;;5097199;28;20035;-83
2023/04/07 11:41:12;;;;;;;55.55;24.13;;;;;;;;;;5097219;28;20042;-85
2023/04/07 11:43:40;;;;;;;51.35;23.23;;;;;;;;;;5097219;28;20285;-86
2023/04/07 11:46:09;;;;;;;53.33;22.08;;;;;;;;;;5115830;28;20031;-81
2023/04/07 11:48:35;;;;;;;51.47;22.15;;;;;;;;;;5115318;28;20028;-82
2023/04/07 11:51:01;;;;;;;56.22;25.40;;;;;;;;;;5082670;28;20051;-91
2023/04/07 11:53:27;;;;;;;56.22;24.23;;;;;;;;;;5108605;28;20028;-85
2023/04/07 11:56:00;;;;;;;53.92;24.75;;;;;;;;;;5105305;28;20345;-90
2023/04/07 11:58:26;;;;;;;52.53;24.33;;;;;;;;;;5080405;28;20050;-88
2023/04/07 12:00:56;;;;;;;62.92;24.88;;;;;;;;;;5101264;28;20089;-90
2023/04/07 12:03:21;;;;;;;59.60;25.77;;;;;;;;;;5098385;28;20038;-88
2023/04/07 12:05:47;;;;;;;56.95;25.95;;;;;;;;;;5115135;28;20431;-89
2023/04/07 12:08:14;;;;;;;59.50;28.55;;;;;;;;;;5115523;28;20024;-91
2023/04/07 12:10:40;;;;;;;51.22;23.25;;;;;;;;;;5115931;28;20441;-92
2023/04/07 12:13:07;;;;;;;53.30;23.80;;;;;;;;;;5115927;28;20032;-91
2023/04/07 12:15:32;;;;;;;53.50;23.63;;;;;;;;;;5111283;28;20039;-92
2023/04/07 12:17:58;;;;;;;57.33;24.63;;;;;;;;;;5115357;28;20430;-86
2023/04/07 12:20:23;;;;;;;60.30;27.92;;;;;;;;;;5112987;28;20089;-88
2023/04/07 12:22:48;;;;;;;56.65;26.50;;;;;;;;;;5078756;28;20047;-90
2023/04/07 12:25:14;;;;;;;64.05;28.95;;;;;;;;;;5093235;28;20056;-91
2023/04/07 12:27:39;;;;;;;59.90;27.33;;;;;;;;;;5076506;28;20412;-90
2023/04/07 12:30:06;;;;;;;54.33;26.10;;;;;;;;;;5076195;28;20035;-84
2023/04/07 12:32:31;;;;;;;55.60;27.00;;;;;;;;;;5059524;28;20035;-87
2023/04/07 12:34:57;;;;;;;54.45;23.90;;;;;;;;;;5097663;28;20004;-85
2023/04/07 12:37:23;;;;;;;51.80;25.20;;;;;;;;;;5095189;28;20028;-90
2023/04/07 12:39:48;;;;;;;57.80;26.38;;;;;;;;;;5068263;28;20036;-87
2023/04/07 12:42:13;;;;;;;60.22;26.15;;;;;;;;;;5081954;28;20031;-86
2023/04/07 12:44:39;;;;;;;55.80;26.27;;;;;;;;;;5100252;28;20085;-92
2023/04/07 12:47:05;;;;;;;60.30;26.55;;;;;;;;;;5060876;28;20055;-88
2023/04/07 12:49:30;;;;;;;52.03;24.55;;;;;;;;;;5076567;28;20063;-88
2023/04/07 12:51:56;;;;;;;59.47;27.65;;;;;;;;;;5076433;28;20112;-88
2023/04/07 12:54:21;;;;;;;59.35;27.77;;;;;;;;;;5076157;28;20028;-89
2023/04/07 12:56:47;;;;;;;71.05;28.63;;;;;;;;;;5089223;28;20016;-84
2023/04/07 12:59:12;;;;;;;61.30;29.27;;;;;;;;;;5090772;28;20119;-87
2023/04/07 13:01:39;;;;;;;60.88;27.40;;;;;;;;;;5094649;28;20093;-87
2023/04/07 13:04:04;;;;;;;55.60;24.85;;;;;;;;;;5075968;28;20085;-89
2023/04/07 13:06:31;;;;;;;57.60;27.35;;;;;;;;;;5075839;28;20024;-87
2023/04/07 13:08:56;;;;;;;56.75;26.30;;;;;;;;;;5093820;28;20111;-90
2023/04/07 13:11:22;;;;;;;63.97;29.05;;;;;;;;;;5093971;28;20433;-88
2023/04/07 13:13:47;;;;;;;60.55;28.88;;;;;;;;;;5094006;28;20094;-87
2023/04/07 13:16:12;;;;;;;68.07;29.95;;;;;;;;;;5093696;28;20032;-86
2023/04/07 13:18:38;;;;;;;78.35;33.17;;;;;;;;;;5110920;28;20044;-90
2023/04/07 13:21:04;;;;;;;68.15;30.25;;;;;;;;;;5081714;28;20023;-90
2023/04/07 13:23:30;;;;;;;65.53;27.33;;;;;;;;;;5114108;28;20031;-91
2023/04/07 13:25:55;;;;;;;73.63;32.35;;;;;;;;;;5073026;28;20401;-89
2023/04/07 13:28:21;;;;;;;79.25;34.03;;;;;;;;;;5076954;28;20024;-90
2023/04/07 13:30:46;;;;;;;69.93;29.92;;;;;;;;;;5097494;28;20024;-86
2023/04/07 13:33:12;;;;;;;64.70;28.08;;;;;;;;;;5097582;28;20418;-88
2023/04/07 13:35:37;;;;;;;63.60;27.85;;;;;;;;;;5079494;28;20077;-89
2023/04/07 13:38:03;;;;;;;68.03;30.52;;;;;;;;;;5105704;28;20040;-82
2023/04/07 13:40:29;;;;;;;70.10;30.27;;;;;;;;;;5111538;28;20131;-87
2023/04/07 13:42:55;;;;;;;70.68;31.55;;;;;;;;;;5097440;28;20036;-86
2023/04/07 13:45:21;;;;;;;68.90;29.88;;;;;;;;;;5097231;28;20026;-88
2023/04/07 13:47:46;;;;;;;61.35;27.88;;;;;;;;;;5097140;28;20032;-87
2023/04/07 13:50:12;;;;;;;63.95;29.80;;;;;;;;;;5078950;28;20028;-87
2023/04/07 13:52:37;;;;;;;63.08;28.40;;;;;;;;;;5097210;28;20081;-90
2023/04/07 13:55:04;;;;;;;66.55;27.40;;;;;;;;;;5062562;28;20043;-86
2023/04/07 13:57:30;;;;;;;56.45;27.23;;;;;;;;;;5084269;28;20024;-89
2023/04/07 13:59:56;;;;;;;66.43;28.67;;;;;;;;;;5088247;28;20414;-86
2023/04/07 14:02:23;;;;;;;58.53;25.98;;;;;;;;;;5103245;28;20078;-89
2023/04/07 14:04:48;;;;;;;55.42;26.25;;;;;;;;;;5079310;28;20024;-86
2023/04/07 14:07:14;;;;;;;58.70;27.42;;;;;;;;;;5096853;28;20421;-86
2023/04/07 14:09:39;;;;;;;68.65;31.23;;;;;;;;;;5097392;28;20114;-88
2023/04/07 14:12:05;;;;;;;61.85;28.70;;;;;;;;;;5097191;28;20040;-89
2023/04/07 14:14:30;;;;;;;56.85;25.92;;;;;;;;;;5062490;28;20084;-88
2023/04/07 14:16:56;;;;;;;70.47;30.67;;;;;;;;;;5100249;28;20121;-86
2023/04/07 14:19:22;;;;;;;64.15;29.10;;;;;;;;;;5097198;28;20044;-88
2023/04/07 14:21:48;;;;;;;59.30;28.10;;;;;;;;;;5087266;28;20087;-89
2023/04/07 14:24:13;;;;;;;62.40;27.42;;;;;;;;;;5119797;28;20066;-87
2023/04/07 14:26:39;;;;;;;59.83;29.13;;;;;;;;;;5117353;28;20024;-88
2023/04/07 14:29:04;;;;;;;62.35;27.63;;;;;;;;;;5100462;28;20032;-86
2023/04/07 14:31:30;;;;;;;65.97;30.30;;;;;;;;;;5096154;28;20024;-87
2023/04/07 14:33:56;;;;;;;66.03;32.50;;;;;;;;;;5097276;28;20067;-87
2023/04/07 14:36:22;;;;;;;58.42;27.83;;;;;;;;;;5078832;28;20068;-87